sensor_id;sensor_type;location;lat;lon;timestamp;temperature;humidity
75821;DHT22;64454;51.984;9.838;2023-05-10T00:01:35;16.60;1.00
75821;DHT22;64454;51.984;9.838;2023-05-10T00:04:02;16.70;1.00
75821;DHT22;64454;51.984;9.838;2023-05-10T00:06:30;16.70;1.00
75821;DHT22;64454;51.984;9.838;2023-05-10T00:08:57;16.70;1.00
75821;DHT22;64454;51.984;9.838;2023-05-10T00:11:24;16.70;1.00
75821;DHT22;64454;51.984;9.838;2023-05-10T00:13:51;16.80;1.00
75821;DHT22;64454;51.984;9.838;2023-05-10T00:16:18;16.80;1.00
75821;DHT22;64454;51.984;9.838;2023-05-10T00:18:45;16.80;1.00
75821;DHT22;64454;51.984;9.838;2023-05-10T00:21:11;16.70;1.00
75821;DHT22;64454;51.984;9.838;2023-05-10T00:23:40;16.60;1.00
75821;DHT22;64454;51.984;9.838;2023-05-10T00:26:06;16.70;1.00
75821;DHT22;64454;51.984;9.838;2023-05-10T00:28:33;16.70;1.00
75821;DHT22;64454;51.984;9.838;2023-05-10T00:31:00;16.80;1.00
75821;DHT22;64454;51.984;9.838;2023-05-10T00:33:27;16.80;1.00
75821;DHT22;64454;51.984;9.838;2023-05-10T00:35:54;16.90;1.00
75821;DHT22;64454;51.984;9.838;2023-05-10T00:38:20;16.90;1.00
75821;DHT22;64454;51.984;9.838;2023-05-10T00:40:48;16.90;1.00
75821;DHT22;64454;51.984;9.838;2023-05-10T00:43:15;17.00;1.00
75821;DHT22;64454;51.984;9.838;2023-05-10T00:45:42;16.90;1.00
75821;DHT22;64454;51.984;9.838;2023-05-10T00:48:09;16.90;1.00
75821;DHT22;64454;51.984;9.838;2023-05-10T00:50:36;16.80;1.00
75821;DHT22;64454;51.984;9.838;2023-05-10T00:53:05;16.60;1.00
75821;DHT22;64454;51.984;9.838;2023-05-10T00:55:32;16.50;1.00
75821;DHT22;64454;51.984;9.838;2023-05-10T00:58:00;16.30;1.00
75821;DHT22;64454;51.984;9.838;2023-05-10T01:00:28;16.30;1.00
75821;DHT22;64454;51.984;9.838;2023-05-10T01:02:55;16.20;1.00
75821;DHT22;64454;51.984;9.838;2023-05-10T01:05:22;16.20;1.00
75821;DHT22;64454;51.984;9.838;2023-05-10T01:07:49;16.10;1.00
75821;DHT22;64454;51.984;9.838;2023-05-10T01:10:15;16.00;1.00
75821;DHT22;64454;51.984;9.838;2023-05-10T01:12:44;16.00;1.00
75821;DHT22;64454;51.984;9.838;2023-05-10T01:15:15;16.00;1.00
75821;DHT22;64454;51.984;9.838;2023-05-10T01:17:44;15.90;1.00
75821;DHT22;64454;51.984;9.838;2023-05-10T01:20:14;16.00;1.00
75821;DHT22;64454;51.984;9.838;2023-05-10T01:23:00;15.90;1.00
75821;DHT22;64454;51.984;9.838;2023-05-10T01:26:03;16.00;1.00
75821;DHT22;64454;51.984;9.838;2023-05-10T01:29:17;15.90;1.00
75821;DHT22;64454;51.984;9.838;2023-05-10T01:32:19;16.00;1.00
75821;DHT22;64454;51.984;9.838;2023-05-10T01:34:55;16.00;1.00
75821;DHT22;64454;51.984;9.838;2023-05-10T01:37:35;16.00;1.00
75821;DHT22;64454;51.984;9.838;2023-05-10T01:40:13;16.00;1.00
75821;DHT22;64454;51.984;9.838;2023-05-10T01:42:48;16.00;1.00
75821;DHT22;64454;51.984;9.838;2023-05-10T01:45:22;16.10;1.00
75821;DHT22;64454;51.984;9.838;2023-05-10T01:48:02;16.10;1.00
75821;DHT22;64454;51.984;9.838;2023-05-10T01:50:34;16.20;1.00
75821;DHT22;64454;51.984;9.838;2023-05-10T01:53:06;16.20;1.00
75821;DHT22;64454;51.984;9.838;2023-05-10T01:55:41;16.20;1.00
75821;DHT22;64454;51.984;9.838;2023-05-10T01:58:14;16.20;1.00
75821;DHT22;64454;51.984;9.838;2023-05-10T02:00:45;16.30;1.00
75821;DHT22;64454;51.984;9.838;2023-05-10T02:03:16;16.40;1.00
75821;DHT22;64454;51.984;9.838;2023-05-10T02:05:48;16.50;1.00
75821;DHT22;64454;51.984;9.838;2023-05-10T02:08:17;16.60;1.00
75821;DHT22;64454;51.984;9.838;2023-05-10T02:10:47;16.70;1.00
75821;DHT22;64454;51.984;9.838;2023-05-10T02:13:17;16.80;1.00
75821;DHT22;64454;51.984;9.838;2023-05-10T02:15:47;16.90;1.00
75821;DHT22;64454;51.984;9.838;2023-05-10T02:18:17;17.00;1.00
75821;DHT22;64454;51.984;9.838;2023-05-10T02:20:45;17.10;1.00
75821;DHT22;64454;51.984;9.838;2023-05-10T02:23:14;17.20;1.00
75821;DHT22;64454;51.984;9.838;2023-05-10T02:25:44;17.20;1.00
75821;DHT22;64454;51.984;9.838;2023-05-10T02:28:14;17.30;1.00
75821;DHT22;64454;51.984;9.838;2023-05-10T02:30:43;17.30;1.00
75821;DHT22;64454;51.984;9.838;2023-05-10T02:33:11;17.40;1.00
75821;DHT22;64454;51.984;9.838;2023-05-10T02:35:40;17.30;1.00
75821;DHT22;64454;51.984;9.838;2023-05-10T02:38:08;17.30;1.00
75821;DHT22;64454;51.984;9.838;2023-05-10T02:40:37;17.40;1.00
75821;DHT22;64454;51.984;9.838;2023-05-10T02:43:10;17.40;1.00
75821;DHT22;64454;51.984;9.838;2023-05-10T02:45:40;17.40;1.00
75821;DHT22;64454;51.984;9.838;2023-05-10T02:48:09;17.40;1.00
75821;DHT22;64454;51.984;9.838;2023-05-10T02:50:37;17.40;1.00
75821;DHT22;64454;51.984;9.838;2023-05-10T02:53:11;17.30;1.00
75821;DHT22;64454;51.984;9.838;2023-05-10T02:55:44;17.30;1.00
75821;DHT22;64454;51.984;9.838;2023-05-10T02:58:17;17.30;1.00
75821;DHT22;64454;51.984;9.838;2023-05-10T03:00:46;17.20;1.00
75821;DHT22;64454;51.984;9.838;2023-05-10T03:03:13;17.30;1.00
75821;DHT22;64454;51.984;9.838;2023-05-10T03:05:41;17.30;1.00
75821;DHT22;64454;51.984;9.838;2023-05-10T03:08:08;17.30;1.00
75821;DHT22;64454;51.984;9.838;2023-05-10T03:10:54;17.30;1.00
75821;DHT22;64454;51.984;9.838;2023-05-10T03:13:34;17.30;1.00
75821;DHT22;64454;51.984;9.838;2023-05-10T03:16:10;17.40;1.00
75821;DHT22;64454;51.984;9.838;2023-05-10T03:18:43;17.30;1.00
75821;DHT22;64454;51.984;9.838;2023-05-10T03:21:18;17.30;1.00
75821;DHT22;64454;51.984;9.838;2023-05-10T03:23:51;17.30;1.00
75821;DHT22;64454;51.984;9.838;2023-05-10T03:26:26;17.30;1.00
75821;DHT22;64454;51.984;9.838;2023-05-10T03:28:55;17.20;1.00
75821;DHT22;64454;51.984;9.838;2023-05-10T03:31:25;17.20;1.00
75821;DHT22;64454;51.984;9.838;2023-05-10T03:33:52;17.10;1.00
75821;DHT22;64454;51.984;9.838;2023-05-10T03:36:20;17.20;1.00
75821;DHT22;64454;51.984;9.838;2023-05-10T03:38:47;17.20;1.00
75821;DHT22;64454;51.984;9.838;2023-05-10T03:41:14;17.20;1.00
75821;DHT22;64454;51.984;9.838;2023-05-10T03:43:41;17.10;1.00
75821;DHT22;64454;51.984;9.838;2023-05-10T03:46:08;17.10;1.00
75821;DHT22;64454;51.984;9.838;2023-05-10T03:48:35;17.10;1.00
75821;DHT22;64454;51.984;9.838;2023-05-10T03:51:01;17.20;1.00
75821;DHT22;64454;51.984;9.838;2023-05-10T03:53:31;17.10;1.00
75821;DHT22;64454;51.984;9.838;2023-05-10T03:55:58;17.10;1.00
75821;DHT22;64454;51.984;9.838;2023-05-10T03:58:25;17.10;1.00
75821;DHT22;64454;51.984;9.838;2023-05-10T04:00:52;17.10;1.00
75821;DHT22;64454;51.984;9.838;2023-05-10T04:03:20;17.00;1.00
75821;DHT22;64454;51.984;9.838;2023-05-10T04:05:48;16.90;1.00
75821;DHT22;64454;51.984;9.838;2023-05-10T04:08:15;16.60;1.00
75821;DHT22;64454;51.984;9.838;2023-05-10T04:10:43;16.40;1.00
75821;DHT22;64454;51.984;9.838;2023-05-10T04:13:10;16.20;1.00
75821;DHT22;64454;51.984;9.838;2023-05-10T04:15:37;16.10;1.00
75821;DHT22;64454;51.984;9.838;2023-05-10T04:18:04;16.00;1.00
75821;DHT22;64454;51.984;9.838;2023-05-10T04:20:32;15.90;1.00
75821;DHT22;64454;51.984;9.838;2023-05-10T04:22:59;15.80;1.00
75821;DHT22;64454;51.984;9.838;2023-05-10T04:25:26;15.70;1.00
75821;DHT22;64454;51.984;9.838;2023-05-10T04:27:54;15.50;1.00
75821;DHT22;64454;51.984;9.838;2023-05-10T04:30:21;15.30;1.00
75821;DHT22;64454;51.984;9.838;2023-05-10T04:32:48;15.10;1.00
75821;DHT22;64454;51.984;9.838;2023-05-10T04:35:14;15.00;1.00
75821;DHT22;64454;51.984;9.838;2023-05-10T04:37:41;15.00;1.00
75821;DHT22;64454;51.984;9.838;2023-05-10T04:40:09;15.00;1.00
75821;DHT22;64454;51.984;9.838;2023-05-10T04:42:36;15.00;1.00
75821;DHT22;64454;51.984;9.838;2023-05-10T04:45:06;15.10;1.00
75821;DHT22;64454;51.984;9.838;2023-05-10T04:47:34;15.10;1.00
75821;DHT22;64454;51.984;9.838;2023-05-10T04:50:02;15.00;1.00
75821;DHT22;64454;51.984;9.838;2023-05-10T04:52:29;14.90;1.00
75821;DHT22;64454;51.984;9.838;2023-05-10T04:54:56;14.90;1.00
75821;DHT22;64454;51.984;9.838;2023-05-10T04:57:23;14.80;1.00
75821;DHT22;64454;51.984;9.838;2023-05-10T04:59:50;14.80;1.00
75821;DHT22;64454;51.984;9.838;2023-05-10T05:02:18;14.80;1.00
75821;DHT22;64454;51.984;9.838;2023-05-10T05:04:45;14.60;1.00
75821;DHT22;64454;51.984;9.838;2023-05-10T05:07:12;14.50;1.00
75821;DHT22;64454;51.984;9.838;2023-05-10T05:09:39;14.40;1.00
75821;DHT22;64454;51.984;9.838;2023-05-10T05:12:06;14.30;1.00
75821;DHT22;64454;51.984;9.838;2023-05-10T05:14:32;14.20;1.00
75821;DHT22;64454;51.984;9.838;2023-05-10T05:16:59;14.10;1.00
75821;DHT22;64454;51.984;9.838;2023-05-10T05:19:27;14.00;1.00
75821;DHT22;64454;51.984;9.838;2023-05-10T05:21:54;13.90;1.00
75821;DHT22;64454;51.984;9.838;2023-05-10T05:24:21;13.90;4.10
75821;DHT22;64454;51.984;9.838;2023-05-10T05:26:48;13.80;11.50
75821;DHT22;64454;51.984;9.838;2023-05-10T05:29:16;13.80;22.40
75821;DHT22;64454;51.984;9.838;2023-05-10T05:31:44;13.90;30.00
75821;DHT22;64454;51.984;9.838;2023-05-10T05:34:11;14.00;39.50
75821;DHT22;64454;51.984;9.838;2023-05-10T05:36:40;14.00;31.10
75821;DHT22;64454;51.984;9.838;2023-05-10T05:39:07;14.10;25.40
75821;DHT22;64454;51.984;9.838;2023-05-10T05:41:34;14.30;30.60
75821;DHT22;64454;51.984;9.838;2023-05-10T05:44:00;14.40;22.50
75821;DHT22;64454;51.984;9.838;2023-05-10T05:46:27;14.50;27.50
75821;DHT22;64454;51.984;9.838;2023-05-10T05:48:54;14.50;25.60
75821;DHT22;64454;51.984;9.838;2023-05-10T05:51:21;14.60;30.90
75821;DHT22;64454;51.984;9.838;2023-05-10T05:53:49;14.70;40.90
75821;DHT22;64454;51.984;9.838;2023-05-10T05:56:16;14.80;35.30
75821;DHT22;64454;51.984;9.838;2023-05-10T05:58:49;14.90;36.70
75821;DHT22;64454;51.984;9.838;2023-05-10T06:01:16;15.00;39.30
75821;DHT22;64454;51.984;9.838;2023-05-10T06:03:43;15.00;47.40
75821;DHT22;64454;51.984;9.838;2023-05-10T06:06:09;15.00;31.20
75821;DHT22;64454;51.984;9.838;2023-05-10T06:08:36;14.90;26.40
75821;DHT22;64454;51.984;9.838;2023-05-10T06:11:04;15.00;53.60
75821;DHT22;64454;51.984;9.838;2023-05-10T06:13:31;15.10;62.00
75821;DHT22;64454;51.984;9.838;2023-05-10T06:16:00;15.20;57.20
75821;DHT22;64454;51.984;9.838;2023-05-10T06:18:28;15.30;66.90
75821;DHT22;64454;51.984;9.838;2023-05-10T06:20:55;15.20;53.30
75821;DHT22;64454;51.984;9.838;2023-05-10T06:23:22;15.20;60.50
75821;DHT22;64454;51.984;9.838;2023-05-10T06:25:51;15.20;69.30
75821;DHT22;64454;51.984;9.838;2023-05-10T06:28:19;15.20;86.60
75821;DHT22;64454;51.984;9.838;2023-05-10T06:30:46;15.20;93.20
75821;DHT22;64454;51.984;9.838;2023-05-10T06:33:13;15.10;99.90
75821;DHT22;64454;51.984;9.838;2023-05-10T06:35:41;15.10;99.90
75821;DHT22;64454;51.984;9.838;2023-05-10T06:38:08;15.10;99.90
75821;DHT22;64454;51.984;9.838;2023-05-10T06:40:34;15.20;99.90
75821;DHT22;64454;51.984;9.838;2023-05-10T06:43:01;15.10;99.90
75821;DHT22;64454;51.984;9.838;2023-05-10T06:45:30;15.30;99.90
75821;DHT22;64454;51.984;9.838;2023-05-10T06:47:56;15.30;99.90
75821;DHT22;64454;51.984;9.838;2023-05-10T06:50:23;15.30;99.90
75821;DHT22;64454;51.984;9.838;2023-05-10T06:52:50;15.40;99.90
75821;DHT22;64454;51.984;9.838;2023-05-10T06:55:17;15.40;99.90
75821;DHT22;64454;51.984;9.838;2023-05-10T06:57:43;15.30;99.90
75821;DHT22;64454;51.984;9.838;2023-05-10T07:00:11;15.40;99.90
75821;DHT22;64454;51.984;9.838;2023-05-10T07:02:39;15.40;99.90
75821;DHT22;64454;51.984;9.838;2023-05-10T07:05:07;15.40;99.90
75821;DHT22;64454;51.984;9.838;2023-05-10T07:07:34;15.50;99.90
75821;DHT22;64454;51.984;9.838;2023-05-10T07:10:01;15.50;99.90
75821;DHT22;64454;51.984;9.838;2023-05-10T07:12:28;15.40;99.90
75821;DHT22;64454;51.984;9.838;2023-05-10T07:14:55;15.40;99.90
75821;DHT22;64454;51.984;9.838;2023-05-10T07:17:21;15.40;99.90
75821;DHT22;64454;51.984;9.838;2023-05-10T07:19:49;15.40;99.90
75821;DHT22;64454;51.984;9.838;2023-05-10T07:22:16;15.30;99.90
75821;DHT22;64454;51.984;9.838;2023-05-10T07:24:43;15.30;99.90
75821;DHT22;64454;51.984;9.838;2023-05-10T07:27:10;15.40;99.90
75821;DHT22;64454;51.984;9.838;2023-05-10T07:29:38;15.40;99.90
75821;DHT22;64454;51.984;9.838;2023-05-10T07:32:05;15.50;99.90
75821;DHT22;64454;51.984;9.838;2023-05-10T07:34:32;15.50;99.90
75821;DHT22;64454;51.984;9.838;2023-05-10T07:37:01;15.70;99.90
75821;DHT22;64454;51.984;9.838;2023-05-10T07:39:27;15.80;99.90
75821;DHT22;64454;51.984;9.838;2023-05-10T07:41:55;15.90;99.90
75821;DHT22;64454;51.984;9.838;2023-05-10T07:44:22;15.90;99.90
75821;DHT22;64454;51.984;9.838;2023-05-10T07:46:49;16.00;99.90
75821;DHT22;64454;51.984;9.838;2023-05-10T07:49:17;16.00;99.90
75821;DHT22;64454;51.984;9.838;2023-05-10T07:51:44;16.20;99.90
75821;DHT22;64454;51.984;9.838;2023-05-10T07:54:14;16.40;92.40
75821;DHT22;64454;51.984;9.838;2023-05-10T07:56:42;16.50;85.90
75821;DHT22;64454;51.984;9.838;2023-05-10T07:59:16;16.70;86.30
75821;DHT22;64454;51.984;9.838;2023-05-10T08:01:45;16.90;77.40
75821;DHT22;64454;51.984;9.838;2023-05-10T08:04:11;17.00;38.10
75821;DHT22;64454;51.984;9.838;2023-05-10T08:06:39;17.10;26.20
75821;DHT22;64454;51.984;9.838;2023-05-10T08:09:06;17.10;22.20
75821;DHT22;64454;51.984;9.838;2023-05-10T08:11:34;17.20;24.90
75821;DHT22;64454;51.984;9.838;2023-05-10T08:14:01;17.10;34.10
75821;DHT22;64454;51.984;9.838;2023-05-10T08:16:28;17.20;44.30
75821;DHT22;64454;51.984;9.838;2023-05-10T08:18:55;17.20;59.20
75821;DHT22;64454;51.984;9.838;2023-05-10T08:21:21;17.20;76.30
75821;DHT22;64454;51.984;9.838;2023-05-10T08:23:48;17.20;80.80
75821;DHT22;64454;51.984;9.838;2023-05-10T08:26:15;17.20;48.00
75821;DHT22;64454;51.984;9.838;2023-05-10T08:28:43;17.30;48.40
75821;DHT22;64454;51.984;9.838;2023-05-10T08:31:10;17.30;52.70
75821;DHT22;64454;51.984;9.838;2023-05-10T08:33:36;17.30;70.60
75821;DHT22;64454;51.984;9.838;2023-05-10T08:36:03;17.30;54.60
75821;DHT22;64454;51.984;9.838;2023-05-10T08:38:30;17.30;29.60
75821;DHT22;64454;51.984;9.838;2023-05-10T08:40:58;17.20;30.80
75821;DHT22;64454;51.984;9.838;2023-05-10T08:43:27;17.20;47.40
75821;DHT22;64454;51.984;9.838;2023-05-10T08:45:56;17.20;39.40
75821;DHT22;64454;51.984;9.838;2023-05-10T08:48:29;17.10;38.20
75821;DHT22;64454;51.984;9.838;2023-05-10T08:50:57;17.10;46.90
75821;DHT22;64454;51.984;9.838;2023-05-10T08:53:29;17.00;28.20
75821;DHT22;64454;51.984;9.838;2023-05-10T08:55:57;17.00;49.20
75821;DHT22;64454;51.984;9.838;2023-05-10T08:58:25;17.00;36.70
75821;DHT22;64454;51.984;9.838;2023-05-10T09:00:52;17.00;50.20
75821;DHT22;64454;51.984;9.838;2023-05-10T09:03:20;17.00;52.20
75821;DHT22;64454;51.984;9.838;2023-05-10T09:05:48;17.10;43.50
75821;DHT22;64454;51.984;9.838;2023-05-10T09:08:15;17.10;29.30
75821;DHT22;64454;51.984;9.838;2023-05-10T09:10:43;17.10;39.20
75821;DHT22;64454;51.984;9.838;2023-05-10T09:13:12;17.20;34.20
75821;DHT22;64454;51.984;9.838;2023-05-10T09:15:41;17.20;14.80
75821;DHT22;64454;51.984;9.838;2023-05-10T09:18:08;17.30;9.80
75821;DHT22;64454;51.984;9.838;2023-05-10T09:20:36;17.40;9.80
75821;DHT22;64454;51.984;9.838;2023-05-10T09:23:03;17.50;8.00
75821;DHT22;64454;51.984;9.838;2023-05-10T09:25:30;17.60;7.40
75821;DHT22;64454;51.984;9.838;2023-05-10T09:27:58;17.80;1.00
75821;DHT22;64454;51.984;9.838;2023-05-10T09:30:27;17.80;1.00
75821;DHT22;64454;51.984;9.838;2023-05-10T09:32:56;18.00;1.00
75821;DHT22;64454;51.984;9.838;2023-05-10T09:35:25;18.10;1.00
75821;DHT22;64454;51.984;9.838;2023-05-10T09:37:57;18.30;1.00
75821;DHT22;64454;51.984;9.838;2023-05-10T09:40:27;18.30;1.00
75821;DHT22;64454;51.984;9.838;2023-05-10T09:42:56;18.40;1.00
75821;DHT22;64454;51.984;9.838;2023-05-10T09:45:25;18.50;1.00
75821;DHT22;64454;51.984;9.838;2023-05-10T09:47:53;18.50;1.00
75821;DHT22;64454;51.984;9.838;2023-05-10T09:50:21;18.70;1.00
75821;DHT22;64454;51.984;9.838;2023-05-10T09:52:50;18.80;1.00
75821;DHT22;64454;51.984;9.838;2023-05-10T09:55:21;18.90;1.00
75821;DHT22;64454;51.984;9.838;2023-05-10T09:57:58;18.90;1.00
75821;DHT22;64454;51.984;9.838;2023-05-10T10:00:27;18.80;1.00
75821;DHT22;64454;51.984;9.838;2023-05-10T10:02:55;18.50;1.00
75821;DHT22;64454;51.984;9.838;2023-05-10T10:05:28;18.50;1.00
75821;DHT22;64454;51.984;9.838;2023-05-10T10:07:56;18.50;1.00
75821;DHT22;64454;51.984;9.838;2023-05-10T10:10:25;18.60;1.00
75821;DHT22;64454;51.984;9.838;2023-05-10T10:12:53;18.80;1.00
75821;DHT22;64454;51.984;9.838;2023-05-10T10:15:20;19.10;1.00
75821;DHT22;64454;51.984;9.838;2023-05-10T10:17:48;19.40;1.00
75821;DHT22;64454;51.984;9.838;2023-05-10T10:20:15;19.60;1.00
75821;DHT22;64454;51.984;9.838;2023-05-10T10:22:42;19.80;1.00
75821;DHT22;64454;51.984;9.838;2023-05-10T10:25:11;19.90;1.00
75821;DHT22;64454;51.984;9.838;2023-05-10T10:27:47;20.00;1.00
75821;DHT22;64454;51.984;9.838;2023-05-10T10:30:27;20.00;1.00
75821;DHT22;64454;51.984;9.838;2023-05-10T10:33:13;19.90;1.00
75821;DHT22;64454;51.984;9.838;2023-05-10T10:35:55;19.80;1.00
75821;DHT22;64454;51.984;9.838;2023-05-10T10:38:25;19.60;1.00
75821;DHT22;64454;51.984;9.838;2023-05-10T10:41:02;19.50;1.00
75821;DHT22;64454;51.984;9.838;2023-05-10T10:43:30;19.40;1.00
75821;DHT22;64454;51.984;9.838;2023-05-10T10:46:10;19.30;1.00
75821;DHT22;64454;51.984;9.838;2023-05-10T10:48:39;19.40;1.00
75821;DHT22;64454;51.984;9.838;2023-05-10T10:51:06;19.50;1.00
75821;DHT22;64454;51.984;9.838;2023-05-10T10:53:33;19.50;1.00
75821;DHT22;64454;51.984;9.838;2023-05-10T10:56:07;19.60;1.00
75821;DHT22;64454;51.984;9.838;2023-05-10T10:58:37;19.70;1.00
75821;DHT22;64454;51.984;9.838;2023-05-10T11:01:12;19.80;1.00
75821;DHT22;64454;51.984;9.838;2023-05-10T11:06:40;20.30;1.00
75821;DHT22;64454;51.984;9.838;2023-05-10T11:09:09;20.50;1.00
75821;DHT22;64454;51.984;9.838;2023-05-10T11:11:48;20.70;1.00
75821;DHT22;64454;51.984;9.838;2023-05-10T11:14:21;21.20;1.00
75821;DHT22;64454;51.984;9.838;2023-05-10T11:16:48;21.60;1.00
75821;DHT22;64454;51.984;9.838;2023-05-10T11:19:17;21.80;1.00
75821;DHT22;64454;51.984;9.838;2023-05-10T11:21:47;21.90;1.00
75821;DHT22;64454;51.984;9.838;2023-05-10T11:24:18;21.70;1.00
75821;DHT22;64454;51.984;9.838;2023-05-10T11:26:50;21.70;1.00
75821;DHT22;64454;51.984;9.838;2023-05-10T11:29:18;21.70;1.00
75821;DHT22;64454;51.984;9.838;2023-05-10T11:31:48;22.00;1.00
75821;DHT22;64454;51.984;9.838;2023-05-10T11:34:26;22.60;1.00
75821;DHT22;64454;51.984;9.838;2023-05-10T11:36:56;23.30;1.00
75821;DHT22;64454;51.984;9.838;2023-05-10T11:39:26;24.00;1.00
75821;DHT22;64454;51.984;9.838;2023-05-10T11:41:54;24.40;1.00
75821;DHT22;64454;51.984;9.838;2023-05-10T11:44:23;24.60;1.00
75821;DHT22;64454;51.984;9.838;2023-05-10T11:46:50;24.50;1.00
75821;DHT22;64454;51.984;9.838;2023-05-10T11:49:19;24.00;1.00
75821;DHT22;64454;51.984;9.838;2023-05-10T11:51:49;23.50;1.00
75821;DHT22;64454;51.984;9.838;2023-05-10T11:54:17;23.10;1.00
75821;DHT22;64454;51.984;9.838;2023-05-10T11:56:45;22.80;1.00
75821;DHT22;64454;51.984;9.838;2023-05-10T11:59:14;22.50;1.00
75821;DHT22;64454;51.984;9.838;2023-05-10T12:01:44;22.10;1.00
75821;DHT22;64454;51.984;9.838;2023-05-10T12:04:11;21.70;1.00
75821;DHT22;64454;51.984;9.838;2023-05-10T12:06:40;21.30;1.00
75821;DHT22;64454;51.984;9.838;2023-05-10T12:09:08;20.60;1.00
75821;DHT22;64454;51.984;9.838;2023-05-10T12:11:37;20.00;1.00
75821;DHT22;64454;51.984;9.838;2023-05-10T12:14:07;19.70;1.00
75821;DHT22;64454;51.984;9.838;2023-05-10T12:16:35;19.50;1.00
75821;DHT22;64454;51.984;9.838;2023-05-10T12:19:04;19.40;1.00
75821;DHT22;64454;51.984;9.838;2023-05-10T12:21:32;19.30;1.00
75821;DHT22;64454;51.984;9.838;2023-05-10T12:24:01;19.30;1.00
75821;DHT22;64454;51.984;9.838;2023-05-10T12:26:29;19.30;1.00
75821;DHT22;64454;51.984;9.838;2023-05-10T12:29:12;19.40;1.00
75821;DHT22;64454;51.984;9.838;2023-05-10T12:31:50;19.60;1.00
75821;DHT22;64454;51.984;9.838;2023-05-10T12:34:30;19.80;1.00
75821;DHT22;64454;51.984;9.838;2023-05-10T12:36:59;20.00;1.00
75821;DHT22;64454;51.984;9.838;2023-05-10T12:39:38;20.30;1.00
75821;DHT22;64454;51.984;9.838;2023-05-10T12:42:05;20.40;1.00
75821;DHT22;64454;51.984;9.838;2023-05-10T12:44:32;20.60;1.00
75821;DHT22;64454;51.984;9.838;2023-05-10T12:46:59;20.90;1.00
75821;DHT22;64454;51.984;9.838;2023-05-10T12:49:27;21.10;1.00
75821;DHT22;64454;51.984;9.838;2023-05-10T12:51:54;21.40;1.00
75821;DHT22;64454;51.984;9.838;2023-05-10T12:54:21;21.80;1.00
75821;DHT22;64454;51.984;9.838;2023-05-10T12:56:47;22.20;1.00
75821;DHT22;64454;51.984;9.838;2023-05-10T12:59:15;22.50;1.00
75821;DHT22;64454;51.984;9.838;2023-05-10T13:01:44;22.70;1.00
75821;DHT22;64454;51.984;9.838;2023-05-10T13:04:11;22.90;1.00
75821;DHT22;64454;51.984;9.838;2023-05-10T13:06:39;22.90;1.00
75821;DHT22;64454;51.984;9.838;2023-05-10T13:09:06;22.80;1.00
75821;DHT22;64454;51.984;9.838;2023-05-10T13:11:33;22.80;1.00
75821;DHT22;64454;51.984;9.838;2023-05-10T13:14:00;22.60;1.00
75821;DHT22;64454;51.984;9.838;2023-05-10T13:16:28;22.60;1.00
75821;DHT22;64454;51.984;9.838;2023-05-10T13:18:55;22.50;1.00
75821;DHT22;64454;51.984;9.838;2023-05-10T13:21:22;22.40;1.00
75821;DHT22;64454;51.984;9.838;2023-05-10T13:23:51;22.20;1.00
75821;DHT22;64454;51.984;9.838;2023-05-10T13:26:18;22.20;1.00
75821;DHT22;64454;51.984;9.838;2023-05-10T13:28:45;22.10;1.00
75821;DHT22;64454;51.984;9.838;2023-05-10T13:31:12;22.10;1.00
75821;DHT22;64454;51.984;9.838;2023-05-10T13:33:39;22.10;1.00
75821;DHT22;64454;51.984;9.838;2023-05-10T13:36:06;21.90;1.00
75821;DHT22;64454;51.984;9.838;2023-05-10T13:38:33;21.90;1.00
75821;DHT22;64454;51.984;9.838;2023-05-10T13:41:01;21.90;1.00
75821;DHT22;64454;51.984;9.838;2023-05-10T13:43:29;22.00;1.00
75821;DHT22;64454;51.984;9.838;2023-05-10T13:45:56;22.00;1.00
75821;DHT22;64454;51.984;9.838;2023-05-10T13:48:22;22.10;1.00
75821;DHT22;64454;51.984;9.838;2023-05-10T13:50:49;22.10;1.00
75821;DHT22;64454;51.984;9.838;2023-05-10T13:53:16;22.20;1.00
75821;DHT22;64454;51.984;9.838;2023-05-10T13:55:43;22.10;1.00
75821;DHT22;64454;51.984;9.838;2023-05-10T13:58:11;22.00;1.00
75821;DHT22;64454;51.984;9.838;2023-05-10T14:00:38;22.10;1.00
75821;DHT22;64454;51.984;9.838;2023-05-10T14:03:05;22.30;1.00
75821;DHT22;64454;51.984;9.838;2023-05-10T14:05:34;22.50;1.00
75821;DHT22;64454;51.984;9.838;2023-05-10T14:08:01;22.60;1.00
75821;DHT22;64454;51.984;9.838;2023-05-10T14:10:29;22.90;1.00
75821;DHT22;64454;51.984;9.838;2023-05-10T14:12:56;22.80;1.00
75821;DHT22;64454;51.984;9.838;2023-05-10T14:15:24;22.80;1.00
75821;DHT22;64454;51.984;9.838;2023-05-10T14:17:51;22.80;1.00
75821;DHT22;64454;51.984;9.838;2023-05-10T14:20:18;22.80;1.00
75821;DHT22;64454;51.984;9.838;2023-05-10T14:22:45;22.60;1.00
75821;DHT22;64454;51.984;9.838;2023-05-10T14:25:12;22.40;1.00
75821;DHT22;64454;51.984;9.838;2023-05-10T14:27:40;22.40;1.00
75821;DHT22;64454;51.984;9.838;2023-05-10T14:30:08;22.40;1.00
75821;DHT22;64454;51.984;9.838;2023-05-10T14:32:37;22.50;1.00
75821;DHT22;64454;51.984;9.838;2023-05-10T14:35:04;22.70;1.00
75821;DHT22;64454;51.984;9.838;2023-05-10T14:37:32;22.90;1.00
75821;DHT22;64454;51.984;9.838;2023-05-10T14:39:59;23.00;1.00
75821;DHT22;64454;51.984;9.838;2023-05-10T14:42:26;23.10;1.00
75821;DHT22;64454;51.984;9.838;2023-05-10T14:44:53;23.20;1.00
75821;DHT22;64454;51.984;9.838;2023-05-10T14:47:20;22.90;1.00
75821;DHT22;64454;51.984;9.838;2023-05-10T14:49:48;22.70;1.00
75821;DHT22;64454;51.984;9.838;2023-05-10T14:52:15;22.50;1.00
75821;DHT22;64454;51.984;9.838;2023-05-10T14:54:42;22.20;1.00
75821;DHT22;64454;51.984;9.838;2023-05-10T14:57:09;21.90;1.00
75821;DHT22;64454;51.984;9.838;2023-05-10T14:59:36;21.90;1.00
75821;DHT22;64454;51.984;9.838;2023-05-10T15:02:03;21.70;1.00
75821;DHT22;64454;51.984;9.838;2023-05-10T15:04:30;21.50;1.00
75821;DHT22;64454;51.984;9.838;2023-05-10T15:06:59;21.40;1.00
75821;DHT22;64454;51.984;9.838;2023-05-10T15:09:25;21.20;1.00
75821;DHT22;64454;51.984;9.838;2023-05-10T15:11:53;21.10;1.00
75821;DHT22;64454;51.984;9.838;2023-05-10T15:14:20;21.00;1.00
75821;DHT22;64454;51.984;9.838;2023-05-10T15:16:47;20.90;1.00
75821;DHT22;64454;51.984;9.838;2023-05-10T15:19:14;20.90;1.00
75821;DHT22;64454;51.984;9.838;2023-05-10T15:21:43;20.80;1.00
75821;DHT22;64454;51.984;9.838;2023-05-10T15:24:11;20.70;1.00
75821;DHT22;64454;51.984;9.838;2023-05-10T15:26:38;20.60;1.00
75821;DHT22;64454;51.984;9.838;2023-05-10T15:29:05;20.60;1.00
75821;DHT22;64454;51.984;9.838;2023-05-10T15:31:32;20.60;1.00
75821;DHT22;64454;51.984;9.838;2023-05-10T15:34:00;20.50;1.00
75821;DHT22;64454;51.984;9.838;2023-05-10T15:36:27;20.40;1.00
75821;DHT22;64454;51.984;9.838;2023-05-10T15:38:54;20.30;1.00
75821;DHT22;64454;51.984;9.838;2023-05-10T15:41:22;20.30;1.00
75821;DHT22;64454;51.984;9.838;2023-05-10T15:43:50;20.00;1.00
75821;DHT22;64454;51.984;9.838;2023-05-10T15:46:16;19.80;1.00
75821;DHT22;64454;51.984;9.838;2023-05-10T15:48:43;19.70;1.00
75821;DHT22;64454;51.984;9.838;2023-05-10T15:51:10;19.50;1.00
75821;DHT22;64454;51.984;9.838;2023-05-10T15:53:37;19.30;1.00
75821;DHT22;64454;51.984;9.838;2023-05-10T15:56:04;19.30;1.00